KGTR/GTR METAR and TAF weather

Enter ICAO airport designator
Station Type Date Time Source
KGTR METAR 2020/09/28 08:56 UTC NOAA

KGTR 280856Z AUTO 15006KT 10SM CLR 19/19 A2982 RMK AO2 SLP102 T01890189 56006


Station Type Date Time Source
KGTR Decoded METAR 2020/09/28 08:56 UTC NOAA

Columbus/West Point/Starkville, Golden Triangle Regional Airport, MS, United States (KGTR) 33-27N 088-35W
Sep 28, 2020 - 04:56 AM EDT / 2020.09.28 0856 UTC
Wind: from the SSE (150 degrees) at 7 MPH (6 KT):0
Visibility: 10 mile(s):0
Sky conditions: clear
Temperature: 66.0 F (18.9 C)
Dew Point: 66.0 F (18.9 C)
Relative Humidity: 100%
Pressure (altimeter): 29.82 in. Hg (1009 hPa)
Pressure tendency: 0.02 inches (0.6 hPa) lower than three hours ago
ob: KGTR 280856Z AUTO 15006KT 10SM CLR 19/19 A2982 RMK AO2 SLP102 T01890189 56006
cycle: 9

Station Type Date Time Source
KGTR TAF 2020/09/28 06:48 UTC NOAA

TAF KGTR 280546Z 2806/2906 18003KT 6SM BR SKC
FM281400 20010KT P6SM VCSH SCT008 BKN015 BKN030
FM281800 30013G21KT 6SM -SHRA VCTS BKN009CB OVC020
FM282100 34015G25KT P6SM -SHRA BKN015 OVC025
FM290000 34010KT P6SM VCSH SCT035 BKN100
FM290200 35007KT P6SM FEW080 SCT100
AMD NOT SKED 2806/2809

Example: see airport list